createdAt,value
2022-10-01T00:03:10.813Z,80.79
2022-10-01T00:08:16.122Z,80.85
2022-10-01T00:13:17.844Z,80.81
2022-10-01T00:18:19.538Z,80.94
2022-10-01T00:23:21.271Z,81.24
2022-10-01T00:28:22.989Z,81.77
2022-10-01T00:33:25.946Z,81.50
2022-10-01T00:38:28.738Z,81.29
2022-10-01T00:43:37.275Z,81.44
2022-10-01T00:48:59.041Z,81.40
2022-10-01T00:54:10.807Z,81.67
2022-10-01T00:59:15.710Z,81.81
2022-10-01T01:04:17.852Z,81.72
2022-10-01T01:09:22.341Z,81.29
2022-10-01T01:14:57.463Z,81.19
2022-10-01T01:20:08.145Z,81.51
2022-10-01T01:25:21.714Z,81.46
2022-10-01T01:30:24.016Z,81.59
2022-10-01T01:35:37.079Z,81.61
2022-10-01T01:40:42.979Z,82.03
2022-10-01T01:45:47.685Z,81.65
2022-10-01T01:51:04.752Z,81.81
2022-10-01T01:56:07.473Z,81.82
2022-10-01T02:01:40.711Z,82.32
2022-10-01T02:07:23.984Z,82.44
2022-10-01T02:12:50.879Z,82.19
2022-10-01T02:18:42.612Z,81.76
2022-10-01T02:24:01.010Z,81.57
2022-10-01T02:29:09.409Z,81.72
2022-10-01T02:34:19.993Z,82.07
2022-10-01T02:39:26.686Z,82.72
2022-10-01T02:44:41.499Z,82.67
2022-10-01T02:49:43.894Z,82.57
2022-10-01T02:54:54.268Z,82.91
2022-10-01T03:00:08.632Z,83.04
2022-10-01T03:05:10.519Z,82.81
2022-10-01T03:10:15.562Z,81.92
2022-10-01T03:15:19.779Z,81.61
2022-10-01T03:20:22.481Z,81.74
2022-10-01T03:25:24.328Z,82.05
2022-10-01T03:30:26.439Z,82.64
2022-10-01T03:35:28.120Z,82.36
2022-10-01T03:40:32.741Z,81.80
2022-10-01T03:45:34.416Z,81.89
2022-10-01T03:50:36.134Z,82.36
2022-10-01T03:55:37.772Z,83.07
2022-10-01T04:00:39.378Z,83.29
2022-10-01T04:05:45.931Z,83.14
2022-10-01T04:10:48.918Z,83.19
2022-10-01T04:15:50.592Z,82.85
2022-10-01T04:20:52.333Z,82.71
2022-10-01T04:25:54.475Z,82.22
2022-10-01T04:31:15.064Z,82.07
2022-10-01T04:36:16.946Z,82.62
2022-10-01T04:41:19.271Z,83.10
2022-10-01T04:46:21.185Z,83.59
2022-10-01T04:51:23.089Z,83.78
2022-10-01T04:56:24.749Z,83.29
2022-10-01T05:01:26.432Z,83.31
2022-10-01T05:06:28.187Z,83.23
2022-10-01T05:11:29.991Z,83.26
2022-10-01T05:16:31.704Z,83.86
2022-10-01T05:21:33.629Z,84.01
2022-10-01T05:26:37.252Z,84.09
2022-10-01T05:31:43.816Z,84.13
2022-10-01T05:36:45.558Z,84.26
2022-10-01T05:41:47.188Z,84.97
2022-10-01T05:46:49.886Z,85.71
2022-10-01T05:51:51.564Z,86.28
2022-10-01T05:56:54.157Z,86.53
2022-10-01T06:01:55.912Z,85.93
2022-10-01T06:06:58.452Z,85.82
2022-10-01T06:12:00.343Z,86.10
2022-10-01T06:17:02.031Z,85.89
2022-10-01T06:22:03.717Z,86.08
2022-10-01T06:27:05.472Z,86.01
2022-10-01T06:32:10.239Z,86.12
2022-10-01T06:37:12.026Z,86.26
2022-10-01T06:42:13.851Z,86.45
2022-10-01T06:47:15.630Z,86.32
2022-10-01T06:52:35.842Z,86.09
2022-10-01T06:57:37.566Z,86.32
2022-10-01T07:02:40.736Z,86.49
2022-10-01T07:07:44.312Z,86.56
2022-10-01T07:12:50.195Z,86.40
2022-10-01T07:17:52.451Z,86.00
2022-10-01T07:22:59.630Z,86.15
2022-10-01T07:28:05.096Z,85.25
2022-10-01T07:33:06.889Z,84.98
2022-10-01T07:38:08.763Z,83.82
2022-10-01T07:43:10.544Z,83.63
2022-10-01T07:48:16.829Z,83.07
2022-10-01T07:53:19.593Z,82.38
2022-10-01T07:58:23.448Z,81.59
2022-10-01T08:03:25.244Z,80.50
2022-10-01T08:08:26.993Z,78.89
2022-10-01T08:13:29.278Z,77.56
2022-10-01T08:18:32.888Z,76.45
2022-10-01T08:23:35.933Z,75.46
2022-10-01T08:28:37.878Z,74.58
2022-10-01T08:33:40.065Z,74.25
2022-10-01T08:38:47.084Z,74.18
2022-10-01T08:43:51.217Z,73.57
2022-10-01T08:49:20.215Z,72.46
2022-10-01T08:54:42.258Z,71.62
2022-10-01T08:59:44.030Z,71.49
2022-10-01T09:04:49.869Z,73.67
2022-10-01T09:10:17.610Z,73.03
2022-10-01T09:15:58.173Z,72.85
2022-10-01T09:21:00.456Z,72.46
2022-10-01T09:26:02.944Z,71.99
2022-10-01T09:31:26.233Z,71.35
2022-10-01T09:36:47.146Z,69.90
2022-10-01T09:41:48.922Z,68.76
2022-10-01T09:46:51.007Z,67.79
2022-10-01T09:52:05.822Z,68.11
2022-10-01T09:57:16.585Z,67.40
2022-10-01T10:02:32.149Z,65.82
2022-10-01T10:07:34.906Z,65.80
2022-10-01T10:12:37.161Z,65.61
2022-10-01T10:17:43.724Z,64.76
2022-10-01T10:22:45.521Z,64.44
2022-10-01T10:27:56.115Z,63.39
2022-10-01T10:33:07.591Z,62.00
2022-10-01T10:38:20.022Z,61.33
2022-10-01T10:43:29.989Z,61.74
2022-10-01T10:48:47.615Z,60.08
2022-10-01T10:53:49.372Z,59.53
2022-10-01T10:58:53.437Z,59.02
2022-10-01T11:04:00.021Z,59.88
2022-10-01T11:09:10.030Z,59.55
2022-10-01T11:14:23.912Z,58.17
2022-10-01T11:19:31.775Z,57.44
2022-10-01T11:25:11.077Z,57.24
2022-10-01T11:30:47.515Z,56.38
2022-10-01T11:36:14.737Z,55.89
2022-10-01T11:41:42.787Z,57.11
2022-10-01T11:46:59.186Z,56.44
2022-10-01T11:52:35.083Z,55.97
2022-10-01T11:57:55.685Z,56.51
2022-10-01T12:03:02.389Z,55.83
2022-10-01T12:08:26.088Z,55.89
2022-10-01T12:13:39.822Z,55.85
2022-10-01T12:18:57.224Z,55.46
2022-10-01T12:24:28.669Z,55.47
2022-10-01T12:29:57.923Z,55.68
2022-10-01T12:35:12.117Z,56.37
2022-10-01T12:40:50.961Z,54.68
2022-10-01T12:46:26.897Z,54.35
2022-10-01T12:51:53.659Z,55.30
2022-10-01T12:57:08.101Z,55.54
2022-10-01T13:02:38.961Z,55.74
2022-10-01T13:08:08.970Z,55.78
2022-10-01T13:13:32.446Z,56.19
2022-10-01T13:19:09.172Z,55.18
2022-10-01T13:24:42.145Z,54.83
2022-10-01T13:30:34.918Z,55.15
2022-10-01T13:35:40.074Z,54.85
2022-10-01T13:40:42.868Z,54.62
2022-10-01T13:45:48.365Z,54.47
2022-10-01T13:51:02.600Z,54.62
2022-10-01T13:56:05.400Z,54.46
2022-10-01T14:01:21.386Z,53.38
2022-10-01T14:06:36.776Z,52.37
2022-10-01T14:12:04.281Z,52.61
2022-10-01T14:17:09.403Z,52.83
2022-10-01T14:22:52.370Z,53.77
2022-10-01T14:28:32.854Z,54.54
2022-10-01T14:33:40.467Z,55.66
2022-10-01T14:38:42.453Z,56.34
2022-10-01T14:43:44.538Z,56.87
2022-10-01T14:48:59.000Z,57.31
2022-10-01T14:54:01.292Z,57.97
2022-10-01T14:59:05.441Z,58.34
2022-10-01T15:04:20.736Z,58.82
2022-10-01T15:09:22.895Z,59.08
2022-10-01T15:14:25.589Z,59.26
2022-10-01T15:19:27.878Z,59.95
2022-10-01T15:24:45.926Z,60.53
2022-10-01T15:29:56.077Z,60.92
2022-10-01T15:35:01.536Z,61.26
2022-10-01T15:40:19.486Z,61.60
2022-10-01T15:45:25.415Z,61.93
2022-10-01T15:50:36.103Z,62.24
2022-10-01T15:55:52.611Z,62.51
2022-10-01T16:01:07.041Z,62.67
2022-10-01T16:06:27.487Z,63.04
2022-10-01T16:11:35.442Z,63.24
2022-10-01T16:16:37.699Z,63.65
2022-10-01T16:21:40.592Z,64.04
2022-10-01T16:26:44.727Z,63.96
2022-10-01T16:31:47.005Z,64.28
2022-10-01T16:36:49.807Z,64.71
2022-10-01T16:42:12.161Z,65.16
2022-10-01T16:47:14.770Z,65.50
2022-10-01T16:52:16.829Z,65.74
2022-10-01T16:57:18.731Z,66.14
2022-10-01T17:02:20.567Z,66.46
2022-10-01T17:07:22.541Z,66.46
2022-10-01T17:12:26.524Z,66.68
2022-10-01T17:17:28.276Z,66.67
2022-10-01T17:22:31.078Z,67.03
2022-10-01T17:27:32.894Z,67.39
2022-10-01T17:32:36.782Z,67.64
2022-10-01T17:37:39.969Z,68.04
2022-10-01T17:42:41.760Z,68.25
2022-10-01T17:47:46.062Z,68.38
2022-10-01T17:52:48.292Z,68.36
2022-10-01T17:58:23.333Z,68.57
2022-10-01T18:03:26.475Z,69.01
2022-10-01T18:08:51.208Z,69.41
2022-10-01T18:13:53.849Z,69.81
2022-10-01T18:24:25.905Z,70.11
2022-10-01T18:29:28.988Z,70.68
2022-10-01T18:35:00.160Z,70.90
2022-10-01T18:40:17.992Z,70.93
2022-10-01T18:45:48.667Z,71.14
2022-10-01T18:51:24.756Z,71.36
2022-10-01T18:56:34.030Z,71.45
2022-10-01T19:02:13.634Z,71.43
2022-10-01T19:08:06.859Z,71.45
2022-10-01T19:14:09.310Z,71.82
2022-10-01T19:19:58.296Z,72.10
2022-10-01T19:25:08.736Z,72.50
2022-10-01T19:30:19.941Z,72.61
2022-10-01T19:35:32.152Z,72.48
2022-10-01T19:40:51.575Z,72.65
2022-10-01T19:46:26.611Z,72.82
2022-10-01T19:51:35.471Z,73.17
2022-10-01T19:56:40.172Z,73.33
2022-10-01T20:02:33.881Z,73.48
2022-10-01T20:08:07.719Z,74.16
2022-10-01T20:13:53.277Z,74.31
2022-10-01T20:19:18.527Z,74.69
2022-10-01T20:24:41.049Z,75.01
2022-10-01T20:29:56.104Z,75.96
2022-10-01T20:35:31.393Z,77.23
2022-10-01T20:40:49.958Z,77.90
2022-10-01T20:45:55.362Z,78.22
2022-10-01T20:51:10.281Z,78.17
2022-10-01T20:56:28.537Z,78.15
2022-10-01T21:01:36.674Z,78.60
2022-10-01T21:07:00.248Z,78.60
2022-10-01T21:12:21.995Z,78.60
2022-10-01T21:18:21.278Z,78.76
2022-10-01T21:23:39.780Z,78.50
2022-10-01T21:28:57.957Z,78.71
2022-10-01T21:34:19.896Z,78.84
2022-10-01T21:39:55.557Z,78.99
2022-10-01T21:45:46.924Z,78.92
2022-10-01T21:50:53.281Z,79.12
2022-10-01T21:56:26.797Z,79.39
2022-10-01T22:01:54.940Z,79.58
2022-10-01T22:07:37.215Z,79.76
2022-10-01T22:12:46.474Z,80.11
2022-10-01T22:17:53.843Z,79.95
2022-10-01T22:23:09.045Z,79.81
2022-10-01T22:28:25.458Z,79.96
2022-10-01T22:33:38.312Z,80.37
2022-10-01T22:38:54.524Z,80.68
2022-10-01T22:43:57.737Z,80.93
2022-10-01T22:50:14.348Z,80.87
2022-10-01T22:55:57.922Z,81.31
2022-10-01T23:01:22.512Z,81.07
2022-10-01T23:06:56.161Z,81.13
2022-10-01T23:12:27.341Z,81.20
2022-10-01T23:17:51.926Z,81.56
2022-10-01T23:23:33.716Z,81.61
2022-10-01T23:28:44.893Z,81.83
2022-10-01T23:34:01.352Z,81.72
2022-10-01T23:39:19.620Z,82.15
2022-10-01T23:45:01.229Z,82.46
2022-10-01T23:50:10.915Z,82.56
2022-10-01T23:55:51.602Z,82.76
